aviador You're here:

KCCY Decoded Metar

CHARLES CITY in IA, USA
Report Time2018-05-25 20:35:00
UTC Time2018-05-25 20:50:41
Flight Rules vfr VFR
Wind210° at 11 kt
W.Decomp.*RWY 22: 10.7 kt HW 2.5 kt LCW
RWY 18: 9.8 kt HW 5.0 kt RCW
RWY 12: 0.6 kt HW 11.0 kt RCW
W.Rank210° ranks 21
Current wind is above 210° avg. (8.3)
Visibility9999 m
Phenomena:N/A
Clouds:Few 060 Hf
Few 070 Hf
Expected CloudBase > 5,600 ft AGL from Temp-Dew spread
CeilingNone
Temp31°C (ISA +18)
Dew Point17°C (43% RH)
Heat Index31.4°C
AAT29.4°C
QNH1007 hPa
Density Alt3,668 ft
Elevation1,125 ft
Report Wrong Elevation
Raw Report
KCCY 252035Z AUTO 21011KT 10SM FEW060 FEW070 31/17 A2975 RMK
AO2=

Extra information for KCCY:More info

Metar Taf Metar & Taf Last 4 Metars F.Rules Stats Wind Profile Meteogram Temp Stats Airport Information Weather charts Add Link Nearby VenuesMetar ALERT Operation Metar Decoded Social comments

AIRNAV info for KCCY